Terminal Aerodrome Forecast
Issued by NWS Tampa Bay Area, FL

Home | Current Version | Previous Version | Text Only | Print | Product List | Glossary On
Versions: 1 2 3 4 5 6 7 8 9 10 11 12 13 14
000
FTUS42 KTBW 290500
TAFSRQ
TAF
KSRQ 290539Z 2906/3006 12007KT P6SM FEW020 SCT070 BKN250
     FM291200 16006KT P6SM VCSH SCT025 SCT050 BKN250
     FM291800 22008KT P6SM VCTS SCT035CB BKN050
     FM300100 08005KT P6SM SCT045 BKN250=

USA.gov is the U.S. government's official web portal to all federal, state and local government web resources and services.